createdAt,value
2023-02-26T00:00:27.850Z,931.53
2023-02-26T00:00:58.795Z,931.53
2023-02-26T00:01:29.779Z,931.53
2023-02-26T00:02:00.728Z,931.53
2023-02-26T00:02:32.993Z,931.63
2023-02-26T00:03:03.088Z,931.63
2023-02-26T00:03:33.611Z,931.42
2023-02-26T00:04:04.540Z,931.42
2023-02-26T00:04:35.665Z,931.22
2023-02-26T00:05:06.563Z,931.22
2023-02-26T00:05:38.000Z,931.42
2023-02-26T00:06:08.529Z,931.32
2023-02-26T00:06:39.643Z,931.32
2023-02-26T00:07:10.673Z,931.42
2023-02-26T00:07:42.768Z,931.42
2023-02-26T00:08:12.990Z,931.32
2023-02-26T00:08:43.869Z,931.32
2023-02-26T00:09:14.908Z,931.63
2023-02-26T00:09:46.032Z,931.63
2023-02-26T00:10:16.621Z,931.42
2023-02-26T00:10:47.895Z,931.42
2023-02-26T00:11:18.803Z,931.42
2023-02-26T00:11:49.579Z,931.42
2023-02-26T00:12:21.099Z,931.42
2023-02-26T00:12:52.506Z,931.42
2023-02-26T00:13:22.994Z,931.42
2023-02-26T00:13:53.859Z,931.42
2023-02-26T00:14:25.248Z,931.42
2023-02-26T00:14:55.677Z,931.42
2023-02-26T00:15:26.856Z,931.22
2023-02-26T00:15:57.737Z,931.22
2023-02-26T00:16:28.893Z,931.42
2023-02-26T00:17:00.165Z,931.42
2023-02-26T00:17:30.740Z,931.63
2023-02-26T00:18:02.764Z,931.63
2023-02-26T00:18:32.976Z,931.53
2023-02-26T00:19:08.046Z,931.53
2023-02-26T00:19:35.284Z,931.53
2023-02-26T00:20:05.646Z,931.53
2023-02-26T00:20:36.939Z,931.42
2023-02-26T00:21:08.083Z,931.42
2023-02-26T00:21:39.224Z,931.53
2023-02-26T00:22:10.028Z,931.42
2023-02-26T00:22:40.598Z,931.42
2023-02-26T00:23:12.471Z,931.42
2023-02-26T00:23:42.598Z,931.42
2023-02-26T00:24:13.739Z,931.63
2023-02-26T00:24:44.502Z,931.63
2023-02-26T00:25:15.557Z,931.53
2023-02-26T00:25:46.573Z,931.53
2023-02-26T00:26:17.670Z,931.63
2023-02-26T00:26:48.655Z,931.63
2023-02-26T00:27:19.686Z,931.63
2023-02-26T00:27:50.949Z,931.63
2023-02-26T00:28:23.118Z,931.63
2023-02-26T00:28:52.765Z,931.63
2023-02-26T00:29:23.613Z,931.63
2023-02-26T00:29:54.678Z,931.63
2023-02-26T00:30:25.897Z,931.53
2023-02-26T00:30:56.744Z,931.53
2023-02-26T00:31:28.028Z,931.53
2023-02-26T00:31:58.500Z,931.53
2023-02-26T00:32:31.313Z,931.53
2023-02-26T00:33:00.586Z,931.53
2023-02-26T00:33:32.660Z,931.63
2023-02-26T00:34:02.640Z,931.63
2023-02-26T00:34:33.465Z,931.73
2023-02-26T00:35:04.543Z,931.73
2023-02-26T00:35:35.667Z,931.53
2023-02-26T00:36:06.844Z,931.53
2023-02-26T00:36:37.652Z,931.53
2023-02-26T00:37:08.715Z,931.42
2023-02-26T00:37:39.633Z,931.42
2023-02-26T00:38:11.000Z,931.53
2023-02-26T00:38:42.683Z,931.53
2023-02-26T00:39:12.570Z,931.53
2023-02-26T00:39:43.925Z,931.53
2023-02-26T00:40:14.507Z,931.73
2023-02-26T00:40:45.589Z,931.73
2023-02-26T00:41:16.783Z,931.42
2023-02-26T00:41:47.440Z,931.42
2023-02-26T00:42:18.602Z,931.73
2023-02-26T00:42:49.541Z,931.73
2023-02-26T00:43:20.904Z,931.63
2023-02-26T00:43:52.697Z,931.63
2023-02-26T00:44:22.981Z,931.73
2023-02-26T00:44:54.236Z,931.73
2023-02-26T00:45:25.747Z,931.73
2023-02-26T00:45:56.185Z,931.73
2023-02-26T00:46:27.445Z,931.42
2023-02-26T00:46:57.610Z,931.42
2023-02-26T00:47:28.918Z,931.63
2023-02-26T00:47:59.891Z,931.63
2023-02-26T00:48:30.970Z,931.63
2023-02-26T00:49:02.369Z,931.63
2023-02-26T00:49:32.935Z,931.53
2023-02-26T00:50:03.792Z,931.53
2023-02-26T00:50:34.799Z,931.53
2023-02-26T00:51:05.631Z,931.53
2023-02-26T00:51:36.626Z,931.63
2023-02-26T00:52:08.433Z,931.63
2023-02-26T00:52:39.533Z,931.63
2023-02-26T00:53:09.915Z,931.42
2023-02-26T00:53:40.767Z,931.42
2023-02-26T00:54:12.587Z,931.53
2023-02-26T00:54:42.700Z,931.53
2023-02-26T00:55:13.698Z,931.73
2023-02-26T00:55:44.905Z,931.73
2023-02-26T00:56:15.758Z,931.83
2023-02-26T00:56:46.623Z,931.83
2023-02-26T00:57:17.490Z,931.63
2023-02-26T00:57:48.593Z,931.63
2023-02-26T00:58:19.733Z,931.53
2023-02-26T00:58:50.448Z,931.53
2023-02-26T00:59:22.681Z,931.53
2023-02-26T00:59:52.681Z,931.53
2023-02-26T01:00:26.558Z,931.63
2023-02-26T01:00:55.233Z,931.63
2023-02-26T01:01:26.019Z,931.63
2023-02-26T01:01:57.186Z,931.63
2023-02-26T01:02:27.808Z,931.73
2023-02-26T01:02:58.895Z,931.73
2023-02-26T01:03:30.039Z,931.53
2023-02-26T01:04:00.914Z,931.53
2023-02-26T01:04:34.807Z,931.42
2023-02-26T01:05:02.773Z,931.42
2023-02-26T01:05:33.504Z,931.53
2023-02-26T01:06:04.695Z,931.53
2023-02-26T01:06:35.582Z,931.73
2023-02-26T01:07:06.946Z,931.73
2023-02-26T01:07:37.812Z,931.42
2023-02-26T01:08:08.974Z,931.63
2023-02-26T01:08:39.614Z,931.63
2023-02-26T01:09:10.765Z,931.53
2023-02-26T01:09:42.491Z,931.53
2023-02-26T01:10:12.662Z,931.42
2023-02-26T01:10:45.702Z,931.42
2023-02-26T01:11:14.861Z,931.63
2023-02-26T01:11:45.497Z,931.63
2023-02-26T01:12:16.697Z,931.53
2023-02-26T01:12:47.823Z,931.53
2023-02-26T01:13:18.653Z,931.63
2023-02-26T01:13:49.647Z,931.63
2023-02-26T01:14:20.978Z,931.63
2023-02-26T01:14:53.305Z,931.63
2023-02-26T01:15:25.832Z,931.63
2023-02-26T01:15:54.018Z,931.63
2023-02-26T01:16:25.129Z,931.63
2023-02-26T01:16:55.800Z,931.63
2023-02-26T01:17:26.756Z,931.63
2023-02-26T01:17:57.553Z,931.63
2023-02-26T01:18:28.756Z,931.63
2023-02-26T01:18:59.620Z,931.63
2023-02-26T01:19:30.642Z,931.73
2023-02-26T01:20:02.493Z,931.73
2023-02-26T01:20:32.789Z,931.63
2023-02-26T01:21:04.029Z,931.63
2023-02-26T01:21:34.858Z,931.53
2023-02-26T01:22:06.307Z,931.53
2023-02-26T01:22:37.299Z,931.63
2023-02-26T01:23:07.720Z,931.63
2023-02-26T01:23:39.119Z,931.42
2023-02-26T01:24:09.880Z,931.63
2023-02-26T01:24:40.998Z,931.63
2023-02-26T01:25:12.883Z,931.83
2023-02-26T01:25:42.748Z,931.83
2023-02-26T01:26:13.604Z,931.73
2023-02-26T01:26:44.798Z,931.73
2023-02-26T01:27:15.628Z,931.63
2023-02-26T01:27:46.810Z,931.63
2023-02-26T01:28:17.740Z,931.73
2023-02-26T01:28:48.572Z,931.73
2023-02-26T01:29:19.572Z,931.63
2023-02-26T01:29:51.020Z,931.63
2023-02-26T01:30:25.720Z,931.53
2023-02-26T01:30:52.835Z,931.53
2023-02-26T01:31:23.969Z,931.83
2023-02-26T01:31:54.882Z,931.83
2023-02-26T01:32:25.899Z,931.53
2023-02-26T01:32:56.964Z,931.53
2023-02-26T01:33:27.755Z,931.53
2023-02-26T01:33:58.551Z,931.53
2023-02-26T01:34:29.690Z,931.63
2023-02-26T01:35:00.535Z,931.63
2023-02-26T01:35:32.510Z,931.73
2023-02-26T01:36:02.603Z,931.73
2023-02-26T01:36:33.634Z,931.93
2023-02-26T01:37:04.596Z,931.93
2023-02-26T01:37:35.381Z,931.63
2023-02-26T01:38:06.853Z,931.63
2023-02-26T01:38:37.591Z,931.53
2023-02-26T01:39:08.809Z,931.63
2023-02-26T01:39:39.544Z,931.63
2023-02-26T01:40:11.198Z,931.53
2023-02-26T01:40:43.319Z,931.53
2023-02-26T01:41:12.897Z,931.63
2023-02-26T01:41:44.093Z,931.63
2023-02-26T01:42:15.123Z,931.73
2023-02-26T01:42:45.853Z,931.73
2023-02-26T01:43:16.774Z,931.53
2023-02-26T01:43:47.540Z,931.53
2023-02-26T01:44:19.004Z,931.73
2023-02-26T01:44:49.635Z,931.73
2023-02-26T01:45:23.750Z,931.63
2023-02-26T01:45:52.942Z,931.63
2023-02-26T01:46:23.408Z,931.63
2023-02-26T01:46:53.915Z,931.63
2023-02-26T01:47:24.884Z,931.63
2023-02-26T01:47:55.845Z,931.63
2023-02-26T01:48:26.807Z,931.63
2023-02-26T01:48:57.946Z,931.63
2023-02-26T01:49:29.535Z,931.63
2023-02-26T01:50:00.053Z,931.63
2023-02-26T01:50:30.808Z,931.73
2023-02-26T01:51:07.298Z,931.73
2023-02-26T01:51:33.294Z,931.53
2023-02-26T01:52:04.298Z,931.53
2023-02-26T01:52:34.814Z,931.73
2023-02-26T01:53:06.328Z,931.73
2023-02-26T01:53:37.361Z,931.63
2023-02-26T01:54:08.034Z,931.63
2023-02-26T01:54:39.732Z,931.63
2023-02-26T01:55:10.393Z,931.73
2023-02-26T01:55:41.118Z,931.73
2023-02-26T01:56:13.384Z,931.73
2023-02-26T01:56:42.752Z,931.73
2023-02-26T01:57:50.959Z,931.73
2023-02-26T01:58:10.753Z,931.63
2023-02-26T01:58:41.735Z,931.63
2023-02-26T01:59:12.486Z,931.73
2023-02-26T01:59:43.659Z,931.73
2023-02-26T02:00:17.409Z,931.83
2023-02-26T02:00:54.747Z,931.83
2023-02-26T02:01:24.837Z,931.53
2023-02-26T02:01:56.424Z,931.53
2023-02-26T02:02:24.549Z,931.73
2023-02-26T02:02:55.205Z,931.73
2023-02-26T02:03:27.026Z,931.73
2023-02-26T02:03:57.464Z,931.73
2023-02-26T02:04:28.269Z,931.93
2023-02-26T02:04:58.736Z,931.93
2023-02-26T02:05:29.635Z,931.63
2023-02-26T02:06:00.747Z,931.63
2023-02-26T02:06:32.713Z,931.53
2023-02-26T02:07:02.712Z,931.53
2023-02-26T02:07:33.834Z,931.63
2023-02-26T02:08:04.897Z,931.63
2023-02-26T02:08:35.576Z,931.83
2023-02-26T02:09:06.696Z,931.83
2023-02-26T02:09:37.977Z,931.53
2023-02-26T02:10:08.784Z,931.73
2023-02-26T02:10:39.653Z,931.73
2023-02-26T02:11:11.049Z,931.73
2023-02-26T02:11:42.788Z,931.73
2023-02-26T02:12:12.852Z,931.73
2023-02-26T02:12:43.610Z,931.73
2023-02-26T02:13:14.815Z,931.53
2023-02-26T02:13:45.828Z,931.53
2023-02-26T02:14:16.571Z,931.63
2023-02-26T02:14:47.549Z,931.63
2023-02-26T02:15:25.069Z,931.63
2023-02-26T02:15:49.946Z,931.63
2023-02-26T02:16:20.650Z,931.63
2023-02-26T02:16:53.037Z,931.63
2023-02-26T02:17:22.700Z,931.42
2023-02-26T02:17:53.697Z,931.42
2023-02-26T02:18:24.779Z,931.73
2023-02-26T02:18:55.978Z,931.73
2023-02-26T02:19:26.546Z,931.63
2023-02-26T02:19:57.702Z,931.63
2023-02-26T02:20:28.459Z,931.53
2023-02-26T02:20:59.866Z,931.53
2023-02-26T02:21:30.762Z,931.53
2023-02-26T02:22:03.495Z,931.53
2023-02-26T02:22:32.823Z,931.53
2023-02-26T02:23:03.896Z,931.53
2023-02-26T02:23:34.945Z,931.63
2023-02-26T02:24:05.537Z,931.63
2023-02-26T02:24:36.943Z,931.63
2023-02-26T02:25:07.749Z,931.63
2023-02-26T02:25:38.879Z,931.73
2023-02-26T02:26:09.662Z,931.73
2023-02-26T02:26:40.894Z,931.73
2023-02-26T02:27:12.794Z,931.83
2023-02-26T02:27:42.684Z,931.83
2023-02-26T02:28:13.578Z,931.73
2023-02-26T02:28:44.871Z,931.73
2023-02-26T02:29:15.832Z,931.53
2023-02-26T02:29:47.788Z,931.53
2023-02-26T02:30:20.702Z,931.42
2023-02-26T02:30:48.739Z,931.42
2023-02-26T02:31:19.666Z,931.53
2023-02-26T02:31:50.684Z,931.53
2023-02-26T02:32:23.306Z,931.63
2023-02-26T02:32:52.872Z,931.63
2023-02-26T02:33:23.808Z,931.42
2023-02-26T02:33:54.660Z,931.42
2023-02-26T02:34:25.635Z,931.73
2023-02-26T02:34:56.453Z,931.73
2023-02-26T02:35:27.596Z,931.63
2023-02-26T02:35:58.503Z,931.63
2023-02-26T02:36:29.601Z,931.63
2023-02-26T02:37:00.729Z,931.63
2023-02-26T02:37:32.789Z,931.73
2023-02-26T02:38:02.783Z,931.73
2023-02-26T02:38:33.730Z,931.73
2023-02-26T02:39:04.536Z,931.73
2023-02-26T02:39:35.655Z,931.73
2023-02-26T02:40:06.608Z,931.73
2023-02-26T02:40:37.748Z,931.83
2023-02-26T02:41:08.921Z,931.63
2023-02-26T02:41:39.698Z,931.63
2023-02-26T02:42:10.749Z,931.83
2023-02-26T02:42:42.714Z,931.83
2023-02-26T02:43:12.726Z,931.73
2023-02-26T02:43:43.608Z,931.73
2023-02-26T02:44:14.836Z,931.63
2023-02-26T02:44:45.886Z,931.63
2023-02-26T02:45:19.408Z,931.73
2023-02-26T02:45:47.818Z,931.73
2023-02-26T02:46:18.810Z,931.83
2023-02-26T02:46:49.759Z,931.83
2023-02-26T02:47:20.542Z,931.63
2023-02-26T02:47:52.744Z,931.63
2023-02-26T02:48:22.985Z,931.63
2023-02-26T02:48:53.854Z,931.63
2023-02-26T02:49:24.754Z,931.83
2023-02-26T02:49:55.724Z,931.83
2023-02-26T02:50:26.805Z,931.83
2023-02-26T02:50:57.964Z,931.83
2023-02-26T02:51:28.542Z,931.63
2023-02-26T02:51:59.656Z,931.63
2023-02-26T02:52:30.719Z,931.53
2023-02-26T02:53:02.659Z,931.53
2023-02-26T02:53:32.845Z,931.53
2023-02-26T02:54:03.758Z,931.53
2023-02-26T02:54:34.460Z,931.73
2023-02-26T02:55:05.526Z,931.73
2023-02-26T02:55:36.712Z,931.73
2023-02-26T02:56:07.832Z,931.73
2023-02-26T02:56:38.931Z,931.83
2023-02-26T02:57:09.753Z,931.63
2023-02-26T02:57:40.568Z,931.63
2023-02-26T02:58:12.833Z,931.83
2023-02-26T02:58:42.721Z,931.83
2023-02-26T02:59:13.677Z,931.83
2023-02-26T02:59:44.707Z,931.83
2023-02-26T03:00:18.670Z,931.63
2023-02-26T03:00:46.804Z,931.63
2023-02-26T03:01:18.031Z,931.83
2023-02-26T03:01:48.661Z,931.83
2023-02-26T03:02:19.576Z,931.63
2023-02-26T03:02:50.564Z,931.63
2023-02-26T03:03:22.955Z,931.73
2023-02-26T03:03:52.850Z,931.73
2023-02-26T03:04:23.837Z,931.63
2023-02-26T03:04:54.692Z,931.63
2023-02-26T03:05:25.764Z,931.83
2023-02-26T03:05:56.688Z,931.83
2023-02-26T03:06:27.730Z,931.93
2023-02-26T03:06:58.669Z,931.93
2023-02-26T03:07:29.552Z,931.73
2023-02-26T03:08:00.824Z,931.73
2023-02-26T03:08:32.650Z,931.83
2023-02-26T03:09:02.355Z,931.83
2023-02-26T03:09:33.650Z,931.73
2023-02-26T03:10:04.792Z,931.73
2023-02-26T03:10:35.491Z,931.73
2023-02-26T03:11:06.747Z,931.73
2023-02-26T03:11:37.646Z,931.73
2023-02-26T03:12:08.723Z,931.83
2023-02-26T03:12:39.611Z,931.83
2023-02-26T03:13:10.846Z,931.63
2023-02-26T03:13:42.825Z,931.63
2023-02-26T03:14:12.697Z,931.93
2023-02-26T03:14:43.555Z,931.93
2023-02-26T03:15:17.485Z,931.93
2023-02-26T03:15:45.790Z,931.93
2023-02-26T03:16:16.623Z,931.83
2023-02-26T03:16:47.676Z,931.83
2023-02-26T03:17:18.726Z,931.83
2023-02-26T03:17:49.542Z,931.83
2023-02-26T03:18:20.568Z,931.83
2023-02-26T03:18:52.597Z,931.83
2023-02-26T03:19:22.601Z,931.73
2023-02-26T03:19:53.902Z,931.73
2023-02-26T03:20:24.913Z,932.03
2023-02-26T03:20:55.703Z,932.03
2023-02-26T03:21:26.527Z,931.73
2023-02-26T03:21:57.850Z,931.73
2023-02-26T03:22:28.603Z,931.93
2023-02-26T03:22:59.678Z,931.93
2023-02-26T03:23:30.875Z,931.83
2023-02-26T03:24:02.834Z,931.83
2023-02-26T03:24:32.905Z,931.93
2023-02-26T03:25:03.897Z,931.93
2023-02-26T03:25:34.909Z,931.73
2023-02-26T03:26:05.531Z,931.73
2023-02-26T03:26:36.802Z,931.63
2023-02-26T03:27:07.881Z,931.63
2023-02-26T03:27:38.750Z,931.83
2023-02-26T03:28:09.664Z,931.83
2023-02-26T03:28:40.765Z,931.83
2023-02-26T03:29:12.884Z,931.63
2023-02-26T03:29:42.952Z,931.63
2023-02-26T03:30:16.590Z,931.93
2023-02-26T03:30:44.959Z,931.93
2023-02-26T03:31:16.239Z,931.83
2023-02-26T03:31:46.829Z,931.83
2023-02-26T03:32:17.762Z,931.93
2023-02-26T03:32:48.662Z,931.93
2023-02-26T03:33:19.621Z,931.73
2023-02-26T03:33:50.592Z,931.73
2023-02-26T03:34:23.008Z,931.93
2023-02-26T03:34:52.804Z,931.93
2023-02-26T03:35:23.901Z,931.93
2023-02-26T03:35:54.889Z,931.93
2023-02-26T03:36:26.482Z,932.03
2023-02-26T03:36:56.448Z,932.03
2023-02-26T03:37:27.978Z,931.83
2023-02-26T03:37:58.637Z,931.83
2023-02-26T03:38:29.751Z,931.83
2023-02-26T03:39:00.885Z,931.83
2023-02-26T03:39:32.606Z,932.03
2023-02-26T03:40:02.638Z,932.03
2023-02-26T03:40:33.849Z,932.03
2023-02-26T03:41:04.767Z,932.03
2023-02-26T03:41:35.628Z,931.93
2023-02-26T03:42:06.786Z,931.93
2023-02-26T03:42:37.893Z,932.14
2023-02-26T03:43:08.859Z,932.14
2023-02-26T03:43:39.728Z,932.14
2023-02-26T03:44:10.922Z,932.03
2023-02-26T03:44:42.725Z,932.03
2023-02-26T03:45:15.399Z,931.83
2023-02-26T03:45:43.761Z,931.83
2023-02-26T03:46:14.803Z,932.14
2023-02-26T03:46:45.946Z,932.14
2023-02-26T03:47:16.950Z,931.93
2023-02-26T03:47:47.677Z,931.93
2023-02-26T03:48:18.793Z,931.93
2023-02-26T03:48:49.814Z,931.93
2023-02-26T03:49:20.498Z,931.93
2023-02-26T03:49:52.837Z,931.93
2023-02-26T03:50:22.754Z,932.03
2023-02-26T03:50:53.742Z,932.03
2023-02-26T03:51:24.722Z,931.93
2023-02-26T03:51:55.614Z,931.93
2023-02-26T03:52:26.688Z,931.93
2023-02-26T03:52:57.894Z,931.93
2023-02-26T03:53:28.636Z,932.24
2023-02-26T03:53:59.552Z,932.24
2023-02-26T03:54:30.818Z,932.24
2023-02-26T03:55:02.631Z,932.24
2023-02-26T03:55:32.732Z,932.14
2023-02-26T03:56:03.831Z,932.14
2023-02-26T03:56:34.799Z,931.93
2023-02-26T03:57:05.673Z,931.93
2023-02-26T03:57:36.814Z,932.14
2023-02-26T03:58:07.738Z,932.14
2023-02-26T03:58:38.795Z,932.24
2023-02-26T03:59:09.581Z,932.24
2023-02-26T03:59:40.758Z,932.24
2023-02-26T04:00:15.736Z,932.24
2023-02-26T04:00:43.264Z,932.24
2023-02-26T04:01:13.757Z,932.14
2023-02-26T04:01:44.881Z,932.14
2023-02-26T04:02:16.046Z,932.24
2023-02-26T04:02:46.701Z,932.24
2023-02-26T04:03:17.577Z,932.14
2023-02-26T04:03:48.834Z,932.14
2023-02-26T04:04:19.826Z,932.34
2023-02-26T04:04:50.745Z,932.34
2023-02-26T04:05:22.749Z,932.24
2023-02-26T04:05:52.778Z,932.24
2023-02-26T04:06:24.144Z,932.34
2023-02-26T04:06:54.785Z,932.34
2023-02-26T04:07:25.793Z,932.14
2023-02-26T04:07:56.829Z,932.14
2023-02-26T04:08:27.910Z,932.24
2023-02-26T04:08:58.687Z,932.24
2023-02-26T04:09:29.593Z,932.34
2023-02-26T04:10:00.736Z,932.34
2023-02-26T04:10:32.770Z,932.24
2023-02-26T04:11:02.770Z,932.24
2023-02-26T04:11:34.015Z,932.24
2023-02-26T04:12:04.849Z,932.24
2023-02-26T04:12:35.780Z,932.41
2023-02-26T04:13:06.774Z,932.41
2023-02-26T04:13:37.753Z,932.14
2023-02-26T04:14:09.068Z,932.14
2023-02-26T04:14:39.653Z,932.14
2023-02-26T04:15:13.834Z,932.34
2023-02-26T04:15:43.234Z,932.34
2023-02-26T04:16:13.124Z,932.24
2023-02-26T04:16:43.708Z,932.24
2023-02-26T04:17:14.808Z,932.14
2023-02-26T04:17:46.040Z,932.14
2023-02-26T04:18:16.976Z,932.24
2023-02-26T04:18:47.637Z,932.24
2023-02-26T04:19:18.695Z,932.24
2023-02-26T04:19:49.614Z,932.24
2023-02-26T04:20:20.662Z,932.34
2023-02-26T04:20:52.834Z,932.34
2023-02-26T04:21:22.707Z,932.24
2023-02-26T04:21:53.754Z,932.24
2023-02-26T04:22:24.840Z,932.24
2023-02-26T04:22:55.876Z,932.24
2023-02-26T04:23:26.607Z,932.51
2023-02-26T04:23:57.708Z,932.51
2023-02-26T04:24:28.721Z,932.14
2023-02-26T04:24:59.674Z,932.14
2023-02-26T04:25:30.867Z,932.34
2023-02-26T04:26:02.781Z,932.34
2023-02-26T04:26:32.524Z,932.24
2023-02-26T04:27:03.676Z,932.24
2023-02-26T04:27:34.778Z,932.24
2023-02-26T04:28:05.726Z,932.24
2023-02-26T04:28:36.757Z,932.24
2023-02-26T04:29:07.814Z,932.24
2023-02-26T04:29:38.899Z,932.24
2023-02-26T04:30:12.464Z,932.24
2023-02-26T04:30:40.776Z,932.24
2023-02-26T04:31:12.833Z,932.34
2023-02-26T04:31:42.995Z,932.34
2023-02-26T04:32:13.773Z,932.51
2023-02-26T04:32:44.878Z,932.51
2023-02-26T04:33:15.902Z,932.34
2023-02-26T04:33:46.691Z,932.34
2023-02-26T04:34:17.835Z,932.41
2023-02-26T04:34:48.915Z,932.41
2023-02-26T04:35:19.818Z,932.34
2023-02-26T04:35:50.740Z,932.34
2023-02-26T04:36:23.206Z,932.41
2023-02-26T04:36:52.831Z,932.41
2023-02-26T04:37:23.719Z,932.34
2023-02-26T04:37:54.907Z,932.34
2023-02-26T04:41:00.842Z,932.34
2023-02-26T04:41:32.893Z,932.41
2023-02-26T04:42:02.948Z,932.41
2023-02-26T04:42:34.040Z,932.51
2023-02-26T04:43:04.729Z,932.51
2023-02-26T04:43:35.699Z,932.51
2023-02-26T04:44:06.532Z,932.51
2023-02-26T04:44:37.545Z,932.34
2023-02-26T04:45:11.503Z,932.51
2023-02-26T04:45:39.668Z,932.51
2023-02-26T04:46:10.802Z,932.51
2023-02-26T04:46:42.719Z,932.51
2023-02-26T04:47:12.847Z,932.41
2023-02-26T04:47:43.704Z,932.41
2023-02-26T04:48:14.789Z,932.51
2023-02-26T04:48:45.814Z,932.51
2023-02-26T04:49:16.661Z,932.34
2023-02-26T04:49:47.735Z,932.34
2023-02-26T04:50:18.821Z,932.41
2023-02-26T04:50:49.826Z,932.41
2023-02-26T04:51:20.649Z,932.61
2023-02-26T04:51:52.979Z,932.61
2023-02-26T04:52:22.883Z,932.61
2023-02-26T04:52:53.925Z,932.61
2023-02-26T04:53:24.835Z,932.41
2023-02-26T04:53:55.715Z,932.41
2023-02-26T04:54:26.850Z,932.34
2023-02-26T04:54:57.957Z,932.34
2023-02-26T04:55:28.721Z,932.41
2023-02-26T04:55:59.790Z,932.41
2023-02-26T04:56:30.861Z,932.61
2023-02-26T04:57:02.901Z,932.61
2023-02-26T04:57:32.936Z,932.41
2023-02-26T04:58:03.872Z,932.41
2023-02-26T04:58:34.904Z,932.41
2023-02-26T04:59:05.723Z,932.41
2023-02-26T04:59:36.958Z,932.34
2023-02-26T05:00:11.103Z,932.34
2023-02-26T05:00:38.863Z,932.41
2023-02-26T05:01:09.794Z,932.41
2023-02-26T05:01:40.965Z,932.41
2023-02-26T05:02:13.047Z,932.41
2023-02-26T05:02:42.839Z,932.41
2023-02-26T05:03:13.699Z,932.51
2023-02-26T05:03:44.731Z,932.51
2023-02-26T05:04:15.789Z,932.34
2023-02-26T05:04:46.754Z,932.34
2023-02-26T05:05:17.584Z,932.41
2023-02-26T05:05:48.785Z,932.41
2023-02-26T05:06:19.599Z,932.34
2023-02-26T05:06:50.731Z,932.34
2023-02-26T05:07:22.816Z,932.41
2023-02-26T05:07:52.693Z,932.41
2023-02-26T05:08:23.940Z,932.41
2023-02-26T05:08:54.962Z,932.41
2023-02-26T05:09:25.601Z,932.41
2023-02-26T05:09:56.610Z,932.41
2023-02-26T05:10:27.907Z,932.41
2023-02-26T05:10:58.710Z,932.41
2023-02-26T05:11:29.645Z,932.61
2023-02-26T05:12:00.858Z,932.61
2023-02-26T05:12:32.592Z,932.41
2023-02-26T05:13:02.798Z,932.41
2023-02-26T05:13:33.960Z,932.41
2023-02-26T05:14:04.870Z,932.41
2023-02-26T05:14:35.728Z,932.51
2023-02-26T05:15:09.673Z,932.51
2023-02-26T05:15:37.956Z,932.41
2023-02-26T05:16:09.057Z,932.41
2023-02-26T05:16:39.829Z,932.41
2023-02-26T05:17:10.937Z,932.51
2023-02-26T05:17:42.756Z,932.51
2023-02-26T05:18:12.905Z,932.51
2023-02-26T05:18:43.824Z,932.51
2023-02-26T05:19:14.753Z,932.41
2023-02-26T05:19:45.889Z,932.41
2023-02-26T05:20:16.807Z,932.41
2023-02-26T05:20:47.745Z,932.41
2023-02-26T05:21:19.048Z,932.51
2023-02-26T05:21:49.877Z,932.51
2023-02-26T05:22:20.672Z,932.41
2023-02-26T05:22:52.978Z,932.41
2023-02-26T05:23:22.855Z,932.51
2023-02-26T05:23:53.767Z,932.51
2023-02-26T05:24:25.280Z,932.51
2023-02-26T05:24:55.750Z,932.51
2023-02-26T05:25:30.589Z,932.51
2023-02-26T05:25:58.065Z,932.51
2023-02-26T05:26:29.280Z,932.61
2023-02-26T05:27:00.049Z,932.61
2023-02-26T05:27:31.211Z,932.34
2023-02-26T05:28:03.154Z,932.34
2023-02-26T05:28:33.304Z,932.61
2023-02-26T05:29:04.257Z,932.61
2023-02-26T05:29:35.441Z,932.51
2023-02-26T05:30:08.862Z,932.51
2023-02-26T05:30:36.812Z,932.71
2023-02-26T05:31:07.945Z,932.71
2023-02-26T05:31:39.013Z,932.61
2023-02-26T05:32:09.992Z,932.51
2023-02-26T05:32:41.090Z,932.51
2023-02-26T05:33:13.305Z,932.81
2023-02-26T05:33:43.429Z,932.81
2023-02-26T05:34:14.012Z,932.51
2023-02-26T05:34:44.965Z,932.51
2023-02-26T05:35:15.817Z,932.71
2023-02-26T05:35:47.162Z,932.71
2023-02-26T05:36:17.782Z,932.71
2023-02-26T05:36:48.773Z,932.71
2023-02-26T05:37:19.986Z,932.41
2023-02-26T05:37:51.120Z,932.41
2023-02-26T05:38:22.885Z,932.61
2023-02-26T05:38:53.487Z,932.61
2023-02-26T05:39:25.325Z,932.61
2023-02-26T05:39:56.276Z,932.61
2023-02-26T05:40:25.791Z,932.61
2023-02-26T05:40:57.102Z,932.61
2023-02-26T05:41:27.698Z,932.71
2023-02-26T05:41:58.982Z,932.71
2023-02-26T05:42:29.644Z,932.71
2023-02-26T05:43:01.192Z,932.71
2023-02-26T05:43:32.642Z,932.61
2023-02-26T05:44:02.963Z,932.61
2023-02-26T05:44:33.680Z,932.81
2023-02-26T05:45:08.512Z,932.81
2023-02-26T05:45:36.230Z,932.61
2023-02-26T05:46:07.042Z,932.61
2023-02-26T05:46:38.138Z,932.61
2023-02-26T05:47:08.867Z,932.61
2023-02-26T05:47:40.246Z,932.61
2023-02-26T05:48:10.912Z,932.81
2023-02-26T05:48:45.612Z,932.81
2023-02-26T05:49:12.935Z,932.41
2023-02-26T05:49:43.864Z,932.41
2023-02-26T05:50:15.069Z,932.61
2023-02-26T05:50:46.184Z,932.61
2023-02-26T05:51:17.084Z,932.71
2023-02-26T05:51:47.791Z,932.71
2023-02-26T05:52:18.711Z,932.71
2023-02-26T05:52:50.240Z,932.71
2023-02-26T05:53:21.272Z,932.81
2023-02-26T05:53:53.326Z,932.81
2023-02-26T05:54:22.858Z,932.61
2023-02-26T05:54:54.401Z,932.61
2023-02-26T05:55:25.140Z,932.81
2023-02-26T05:55:56.209Z,932.81
2023-02-26T05:56:27.160Z,932.81
2023-02-26T05:56:58.041Z,932.81
2023-02-26T05:57:29.123Z,932.71
2023-02-26T05:57:59.856Z,932.71
2023-02-26T05:58:30.880Z,932.61
2023-02-26T05:59:02.752Z,932.61
2023-02-26T05:59:34.769Z,932.71
2023-02-26T06:00:07.322Z,932.71
2023-02-26T06:00:35.452Z,932.71
2023-02-26T06:01:06.271Z,932.71
2023-02-26T06:01:37.395Z,932.81
2023-02-26T06:02:07.936Z,932.81
2023-02-26T06:02:39.215Z,932.81
2023-02-26T06:03:09.777Z,932.91
2023-02-26T06:03:41.127Z,932.91
2023-02-26T06:04:13.029Z,932.61
2023-02-26T06:04:43.047Z,932.61
2023-02-26T06:05:13.972Z,932.81
2023-02-26T06:05:45.153Z,932.81
2023-02-26T06:06:16.164Z,932.81
2023-02-26T06:06:46.940Z,932.81
2023-02-26T06:07:17.835Z,932.71
2023-02-26T06:07:48.665Z,932.71
2023-02-26T06:08:19.814Z,932.71
2023-02-26T06:08:50.971Z,932.71
2023-02-26T06:09:22.661Z,932.71
2023-02-26T06:09:52.776Z,932.71
2023-02-26T06:10:24.454Z,932.81
2023-02-26T06:10:55.187Z,932.81
2023-02-26T06:11:26.242Z,932.81
2023-02-26T06:11:57.521Z,932.81
2023-02-26T06:12:28.818Z,932.91
2023-02-26T06:12:59.514Z,932.91
2023-02-26T06:13:30.633Z,932.71
2023-02-26T06:14:01.122Z,932.71
2023-02-26T06:14:33.112Z,932.81
2023-02-26T06:15:05.892Z,932.81
2023-02-26T06:15:34.286Z,932.61
2023-02-26T06:16:05.168Z,932.61
2023-02-26T06:16:36.163Z,932.71
2023-02-26T06:17:07.157Z,932.71
2023-02-26T06:17:40.611Z,932.81
2023-02-26T06:18:09.406Z,933.02
2023-02-26T06:18:40.425Z,933.02
2023-02-26T06:19:11.517Z,932.81
2023-02-26T06:19:44.804Z,932.81
2023-02-26T06:20:13.447Z,932.71
2023-02-26T06:20:44.070Z,932.71
2023-02-26T06:21:15.311Z,933.02
2023-02-26T06:21:46.192Z,933.02
2023-02-26T06:22:19.147Z,932.71
2023-02-26T06:22:48.619Z,932.71
2023-02-26T06:23:19.333Z,932.81
2023-02-26T06:23:50.302Z,932.81
2023-02-26T06:24:21.394Z,932.91
2023-02-26T06:24:53.227Z,932.91
2023-02-26T06:25:23.433Z,932.81
2023-02-26T06:25:54.979Z,932.81
2023-02-26T06:26:25.859Z,932.81
2023-02-26T06:26:57.633Z,932.81
2023-02-26T06:27:27.452Z,933.02
2023-02-26T06:27:58.383Z,933.02
2023-02-26T06:28:30.614Z,932.91
2023-02-26T06:29:00.285Z,932.91
2023-02-26T06:29:31.326Z,932.91
2023-02-26T06:30:05.864Z,932.91